PRIVATE WETTERSTATION BILLIGHEIM-ALLFELD                       ZURCK
Wetterdaten: Donnerstag, 25.08.2016
Datum Zeit Temp. A. Temp. A. min Temp. A. max Feuchte A. Luftdruck Regen Wind Richtung Richtung Sonnenschein ET Solar Taupunkt Windchill Windben Empfang
25.08.2016 00:00 21,6 C 21,6 C 21,8 C 66 % 1019,4 hPa 0,0 l/m 0,0 km/h (0 Bft) O 90 0 min 0,025 mm 0 W/m 15,0 C 21,6 C 6,4 km/h (2 Bft) 100 %
25.08.2016 00:10 21,4 C 21,4 C 21,6 C 67 % 1019,4 hPa 0,0 l/m 0,0 km/h (0 Bft) SO 135 0 min 0,000 mm 0 W/m 15,0 C 21,4 C 4,8 km/h (1 Bft) 80 %
25.08.2016 00:20 21,2 C 21,2 C 21,4 C 67 % 1019,3 hPa 0,0 l/m 0,0 km/h (0 Bft) SO 135 0 min 0,000 mm 0 W/m 14,8 C 21,2 C 4,8 km/h (1 Bft) 100 %
25.08.2016 00:30 21,1 C 21,1 C 21,2 C 68 % 1019,3 hPa 0,0 l/m 0,0 km/h (0 Bft) SO 135 0 min 0,000 mm 0 W/m 15,0 C 21,1 C 3,2 km/h (1 Bft) 100 %
25.08.2016 00:40 20,9 C 20,9 C 21,1 C 68 % 1019,4 hPa 0,0 l/m 0,0 km/h (0 Bft) O-SO 112 0 min 0,000 mm 0 W/m 14,8 C 20,9 C 6,4 km/h (2 Bft) 100 %
25.08.2016 00:50 20,8 C 20,8 C 20,9 C 68 % 1019,3 hPa 0,0 l/m 0,0 km/h (0 Bft) O-SO 112 0 min 0,000 mm 0 W/m 14,7 C 20,8 C 6,4 km/h (2 Bft) 100 %
25.08.2016 01:00 20,7 C 20,7 C 20,8 C 69 % 1019,3 hPa 0,0 l/m 0,0 km/h (0 Bft) O-SO 112 0 min 0,025 mm 0 W/m 14,8 C 20,7 C 4,8 km/h (1 Bft) 100 %
25.08.2016 01:10 20,5 C 20,5 C 20,7 C 70 % 1019,3 hPa 0,0 l/m 0,0 km/h (0 Bft) O 90 0 min 0,000 mm 0 W/m 14,8 C 20,5 C 1,6 km/h (1 Bft) 100 %
25.08.2016 01:20 20,2 C 20,2 C 20,5 C 71 % 1019,3 hPa 0,0 l/m 0,0 km/h (0 Bft) O 90 0 min 0,000 mm 0 W/m 14,8 C 20,2 C 1,6 km/h (1 Bft) 100 %
25.08.2016 01:30 19,9 C 19,9 C 20,2 C 71 % 1019,2 hPa 0,0 l/m 0,0 km/h (0 Bft) O 90 0 min 0,000 mm 0 W/m 14,5 C 19,9 C 3,2 km/h (1 Bft) 100 %
25.08.2016 01:40 19,7 C 19,7 C 19,9 C 72 % 1019,0 hPa 0,0 l/m 0,0 km/h (0 Bft) NO 45 0 min 0,000 mm 0 W/m 14,5 C 19,7 C 3,2 km/h (1 Bft) 100 %
25.08.2016 01:50 19,7 C 19,7 C 19,7 C 72 % 1018,9 hPa 0,0 l/m 0,0 km/h (0 Bft) O-SO 112 0 min 0,000 mm 0 W/m 14,5 C 19,7 C 3,2 km/h (1 Bft) 100 %
25.08.2016 02:00 19,7 C 19,6 C 19,7 C 72 % 1018,9 hPa 0,0 l/m 0,0 km/h (0 Bft) NO 45 0 min 0,025 mm 0 W/m 14,5 C 19,7 C 3,2 km/h (1 Bft) 100 %
25.08.2016 02:10 19,4 C 19,4 C 19,6 C 73 % 1018,8 hPa 0,0 l/m 1,6 km/h (1 Bft) N-NO 22 0 min 0,000 mm 0 W/m 14,4 C 19,4 C 9,7 km/h (2 Bft) 100 %
25.08.2016 02:20 19,3 C 19,3 C 19,4 C 74 % 1018,8 hPa 0,0 l/m 0,0 km/h (0 Bft) NO 45 0 min 0,000 mm 0 W/m 14,5 C 19,3 C 6,4 km/h (2 Bft) 100 %
25.08.2016 02:30 19,2 C 19,2 C 19,3 C 74 % 1018,9 hPa 0,0 l/m 0,0 km/h (0 Bft) O 90 0 min 0,000 mm 0 W/m 14,4 C 19,2 C 1,6 km/h (1 Bft) 100 %
25.08.2016 02:40 18,9 C 18,9 C 19,2 C 75 % 1018,9 hPa 0,0 l/m 0,0 km/h (0 Bft) O 90 0 min 0,000 mm 0 W/m 14,4 C 18,9 C 4,8 km/h (1 Bft) 100 %
25.08.2016 02:50 18,7 C 18,7 C 18,9 C 76 % 1018,8 hPa 0,0 l/m 0,0 km/h (0 Bft) O 90 0 min 0,000 mm 0 W/m 14,4 C 18,7 C 1,6 km/h (1 Bft) 100 %
25.08.2016 03:00 18,4 C 18,4 C 18,7 C 76 % 1018,7 hPa 0,0 l/m 0,0 km/h (0 Bft) N 0 0 min 0,025 mm 0 W/m 14,1 C 18,4 C 0,0 km/h (0 Bft) 100 %
25.08.2016 03:10 18,3 C 18,3 C 18,4 C 77 % 1018,8 hPa 0,0 l/m 0,0 km/h (0 Bft) O-NO 67 0 min 0,000 mm 0 W/m 14,2 C 18,3 C 6,4 km/h (2 Bft) 100 %
25.08.2016 03:20 18,3 C 18,3 C 18,3 C 77 % 1018,8 hPa 0,0 l/m 1,6 km/h (1 Bft) SO 135 0 min 0,000 mm 0 W/m 14,2 C 18,3 C 8,0 km/h (2 Bft) 100 %
25.08.2016 03:30 18,2 C 18,2 C 18,3 C 78 % 1018,7 hPa 0,0 l/m 0,0 km/h (0 Bft) NO 45 0 min 0,000 mm 0 W/m 14,3 C 18,2 C 1,6 km/h (1 Bft) 100 %
25.08.2016 03:40 18,1 C 18,1 C 18,2 C 78 % 1018,8 hPa 0,0 l/m 0,0 km/h (0 Bft) N 0 0 min 0,000 mm 0 W/m 14,2 C 18,1 C 0,0 km/h (0 Bft) 100 %
25.08.2016 03:50 17,9 C 17,9 C 18,1 C 79 % 1018,9 hPa 0,0 l/m 0,0 km/h (0 Bft) NO 45 0 min 0,000 mm 0 W/m 14,2 C 17,9 C 4,8 km/h (1 Bft) 100 %
25.08.2016 04:00 17,8 C 17,8 C 17,9 C 79 % 1018,7 hPa 0,0 l/m 1,6 km/h (1 Bft) N-NO 22 0 min 0,025 mm 0 W/m 14,1 C 17,8 C 8,0 km/h (2 Bft) 100 %
25.08.2016 04:10 17,8 C 17,8 C 17,8 C 79 % 1018,6 hPa 0,0 l/m 0,0 km/h (0 Bft) O-NO 67 0 min 0,000 mm 0 W/m 14,1 C 17,8 C 4,8 km/h (1 Bft) 100 %
25.08.2016 04:20 17,7 C 17,7 C 17,8 C 79 % 1018,6 hPa 0,0 l/m 0,0 km/h (0 Bft) N-NO 22 0 min 0,000 mm 0 W/m 14,0 C 17,7 C 6,4 km/h (2 Bft) 100 %
25.08.2016 04:30 17,5 C 17,5 C 17,7 C 80 % 1018,4 hPa 0,0 l/m 0,0 km/h (0 Bft) N 360 0 min 0,000 mm 0 W/m 14,0 C 17,5 C 4,8 km/h (1 Bft) 100 %
25.08.2016 04:40 17,3 C 17,3 C 17,5 C 81 % 1018,2 hPa 0,0 l/m 1,6 km/h (1 Bft) N 360 0 min 0,000 mm 0 W/m 14,0 C 17,3 C 6,4 km/h (2 Bft) 100 %
25.08.2016 04:50 17,1 C 17,1 C 17,3 C 81 % 1017,9 hPa 0,0 l/m 0,0 km/h (0 Bft) O-SO 112 0 min 0,000 mm 0 W/m 13,8 C 17,1 C 3,2 km/h (1 Bft) 100 %
25.08.2016 05:00 17,0 C 17,0 C 17,1 C 82 % 1017,9 hPa 0,0 l/m 0,0 km/h (0 Bft) N-NO 22 0 min 0,025 mm 0 W/m 13,9 C 17,0 C 4,8 km/h (1 Bft) 100 %
25.08.2016 05:10 16,9 C 16,9 C 17,0 C 82 % 1017,9 hPa 0,0 l/m 0,0 km/h (0 Bft) N-NO 22 0 min 0,000 mm 0 W/m 13,8 C 16,9 C 1,6 km/h (1 Bft) 100 %
25.08.2016 05:20 16,6 C 16,6 C 16,9 C 82 % 1017,8 hPa 0,0 l/m 1,6 km/h (1 Bft) N-NO 22 0 min 0,000 mm 0 W/m 13,5 C 16,6 C 4,8 km/h (1 Bft) 100 %
25.08.2016 05:30 16,3 C 16,3 C 16,6 C 83 % 1017,9 hPa 0,0 l/m 1,6 km/h (1 Bft) N 360 0 min 0,000 mm 0 W/m 13,4 C 16,3 C 6,4 km/h (2 Bft) 100 %
25.08.2016 05:40 16,2 C 16,2 C 16,3 C 85 % 1017,8 hPa 0,0 l/m 1,6 km/h (1 Bft) N-NO 22 0 min 0,000 mm 0 W/m 13,7 C 16,2 C 4,8 km/h (1 Bft) 100 %
25.08.2016 05:50 16,2 C 16,2 C 16,2 C 85 % 1017,9 hPa 0,0 l/m 0,0 km/h (0 Bft) N 0 0 min 0,000 mm 0 W/m 13,7 C 16,2 C 0,0 km/h (0 Bft) 100 %
25.08.2016 06:00 16,2 C 16,2 C 16,2 C 84 % 1017,9 hPa 0,0 l/m 0,0 km/h (0 Bft) NO 45 0 min 0,025 mm 0 W/m 13,5 C 16,2 C 1,6 km/h (1 Bft) 100 %
25.08.2016 06:10 15,9 C 15,9 C 16,2 C 85 % 1018,0 hPa 0,0 l/m 0,0 km/h (0 Bft) N-NO 22 0 min 0,000 mm 0 W/m 13,4 C 15,9 C 3,2 km/h (1 Bft) 100 %
25.08.2016 06:20 15,9 C 15,8 C 15,9 C 86 % 1017,9 hPa 0,0 l/m 0,0 km/h (0 Bft) N 0 0 min 0,000 mm 0 W/m 13,6 C 15,9 C 0,0 km/h (0 Bft) 100 %
25.08.2016 06:30 16,1 C 15,9 C 16,1 C 87 % 1017,9 hPa 0,0 l/m 0,0 km/h (0 Bft) N-NW 337 0 min 0,000 mm 0 W/m 13,9 C 16,1 C 8,0 km/h (2 Bft) 100 %
25.08.2016 06:40 16,2 C 16,1 C 16,2 C 86 % 1017,9 hPa 0,0 l/m 1,6 km/h (1 Bft) O-NO 67 0 min 0,000 mm 5 W/m 13,9 C 16,2 C 6,4 km/h (2 Bft) 100 %
25.08.2016 06:50 16,3 C 16,2 C 16,3 C 86 % 1018,0 hPa 0,0 l/m 1,6 km/h (1 Bft) N 360 0 min 0,000 mm 9 W/m 14,0 C 16,3 C 9,7 km/h (2 Bft) 100 %
25.08.2016 07:00 16,4 C 16,3 C 16,4 C 86 % 1018,0 hPa 0,0 l/m 1,6 km/h (1 Bft) N 360 0 min 0,000 mm 11 W/m 14,1 C 16,4 C 11,3 km/h (2 Bft) 100 %
25.08.2016 07:10 16,3 C 16,3 C 16,4 C 86 % 1018,1 hPa 0,0 l/m 1,6 km/h (1 Bft) N-NO 22 0 min 0,000 mm 12 W/m 14,0 C 16,3 C 6,4 km/h (2 Bft) 100 %
25.08.2016 07:20 16,2 C 16,2 C 16,3 C 86 % 1018,1 hPa 0,0 l/m 0,0 km/h (0 Bft) N-NO 22 0 min 0,000 mm 14 W/m 13,9 C 16,2 C 3,2 km/h (1 Bft) 100 %
25.08.2016 07:30 16,2 C 16,2 C 16,2 C 86 % 1018,3 hPa 0,0 l/m 0,0 km/h (0 Bft) N 360 0 min 0,000 mm 16 W/m 13,9 C 16,2 C 1,6 km/h (1 Bft) 100 %
25.08.2016 07:40 16,2 C 16,2 C 16,2 C 86 % 1018,4 hPa 0,0 l/m 0,0 km/h (0 Bft) N 360 0 min 0,000 mm 19 W/m 13,9 C 16,2 C 3,2 km/h (1 Bft) 100 %
25.08.2016 07:50 16,2 C 16,2 C 16,3 C 86 % 1018,2 hPa 0,0 l/m 0,0 km/h (0 Bft) N 360 0 min 0,000 mm 19 W/m 13,9 C 16,2 C 1,6 km/h (1 Bft) 100 %
25.08.2016 08:00 16,1 C 16,1 C 16,2 C 87 % 1018,3 hPa 0,0 l/m 0,0 km/h (0 Bft) N-NO 22 0 min 0,000 mm 21 W/m 13,9 C 16,1 C 6,4 km/h (2 Bft) 100 %
25.08.2016 08:10 16,2 C 16,1 C 16,2 C 87 % 1018,2 hPa 0,0 l/m 0,0 km/h (0 Bft) N 0 0 min 0,000 mm 23 W/m 14,0 C 16,2 C 0,0 km/h (0 Bft) 100 %
25.08.2016 08:20 16,4 C 16,2 C 16,4 C 87 % 1018,2 hPa 0,0 l/m 0,0 km/h (0 Bft) N-NO 22 0 min 0,000 mm 25 W/m 14,2 C 16,4 C 1,6 km/h (1 Bft) 100 %
25.08.2016 08:30 16,6 C 16,4 C 16,6 C 87 % 1018,3 hPa 0,0 l/m 0,0 km/h (0 Bft) N 0 0 min 0,000 mm 47 W/m 14,4 C 16,6 C 0,0 km/h (0 Bft) 100 %
25.08.2016 08:40 17,2 C 16,6 C 17,2 C 86 % 1018,3 hPa 0,0 l/m 0,0 km/h (0 Bft) N 0 10 min 0,000 mm 320 W/m 14,8 C 17,2 C 0,0 km/h (0 Bft) 100 %
25.08.2016 08:50 18,2 C 17,2 C 18,2 C 84 % 1018,3 hPa 0,0 l/m 0,0 km/h (0 Bft) N 0 10 min 0,000 mm 352 W/m 15,4 C 18,2 C 0,0 km/h (0 Bft) 100 %
25.08.2016 09:00 19,3 C 18,2 C 19,3 C 80 % 1018,2 hPa 0,0 l/m 0,0 km/h (0 Bft) NO 45 10 min 0,102 mm 383 W/m 15,8 C 19,3 C 1,6 km/h (1 Bft) 100 %
25.08.2016 09:10 20,1 C 19,3 C 20,1 C 76 % 1018,3 hPa 0,0 l/m 0,0 km/h (0 Bft) N 360 10 min 0,000 mm 408 W/m 15,7 C 20,1 C 1,6 km/h (1 Bft) 100 %
25.08.2016 09:20 20,8 C 20,2 C 20,8 C 74 % 1018,4 hPa 0,0 l/m 0,0 km/h (0 Bft) O-SO 112 10 min 0,000 mm 438 W/m 16,0 C 20,8 C 8,0 km/h (2 Bft) 100 %
25.08.2016 09:30 21,4 C 20,8 C 21,4 C 71 % 1018,3 hPa 0,0 l/m 0,0 km/h (0 Bft) O-SO 112 10 min 0,000 mm 466 W/m 15,9 C 21,4 C 8,0 km/h (2 Bft) 100 %
25.08.2016 09:40 22,0 C 21,4 C 22,0 C 67 % 1018,3 hPa 0,0 l/m 3,2 km/h (1 Bft) O-SO 112 10 min 0,000 mm 489 W/m 15,6 C 22,0 C 14,5 km/h (3 Bft) 100 %
25.08.2016 09:50 22,4 C 22,0 C 22,4 C 68 % 1018,2 hPa 0,0 l/m 1,6 km/h (1 Bft) SO 135 10 min 0,000 mm 515 W/m 16,2 C 22,4 C 14,5 km/h (3 Bft) 100 %
25.08.2016 10:00 22,8 C 22,4 C 22,8 C 67 % 1018,1 hPa 0,0 l/m 3,2 km/h (1 Bft) O-SO 112 10 min 0,279 mm 543 W/m 16,3 C 22,8 C 12,9 km/h (3 Bft) 100 %
25.08.2016 10:10 23,3 C 22,8 C 23,3 C 65 % 1018,1 hPa 0,0 l/m 1,6 km/h (1 Bft) O-SO 112 10 min 0,000 mm 564 W/m 16,3 C 23,3 C 16,1 km/h (3 Bft) 100 %
25.08.2016 10:20 23,7 C 23,3 C 23,7 C 65 % 1017,9 hPa 0,0 l/m 1,6 km/h (1 Bft) SO 135 10 min 0,000 mm 589 W/m 16,7 C 23,7 C 14,5 km/h (3 Bft) 100 %
25.08.2016 10:30 24,3 C 23,7 C 24,3 C 63 % 1018,0 hPa 0,0 l/m 1,6 km/h (1 Bft) SO 135 10 min 0,000 mm 610 W/m 16,8 C 24,3 C 9,7 km/h (2 Bft) 100 %
25.08.2016 10:40 24,7 C 24,3 C 24,7 C 62 % 1017,9 hPa 0,0 l/m 1,6 km/h (1 Bft) O-SO 112 10 min 0,000 mm 635 W/m 16,9 C 24,7 C 17,7 km/h (3 Bft) 100 %
25.08.2016 10:50 25,1 C 24,8 C 25,1 C 59 % 1018,0 hPa 0,0 l/m 3,2 km/h (1 Bft) O 90 10 min 0,000 mm 654 W/m 16,5 C 25,1 C 11,3 km/h (2 Bft) 100 %
25.08.2016 11:00 25,4 C 25,1 C 25,4 C 58 % 1017,9 hPa 0,0 l/m 3,2 km/h (1 Bft) O 90 10 min 0,381 mm 677 W/m 16,5 C 25,4 C 16,1 km/h (3 Bft) 99 %
25.08.2016 11:10 25,7 C 25,4 C 25,7 C 56 % 1017,7 hPa 0,0 l/m 4,8 km/h (1 Bft) O-SO 112 10 min 0,000 mm 693 W/m 16,2 C 25,7 C 16,1 km/h (3 Bft) 91 %
25.08.2016 11:20 26,0 C 25,7 C 26,0 C 56 % 1017,6 hPa 0,0 l/m 4,8 km/h (1 Bft) SO 135 10 min 0,000 mm 710 W/m 16,5 C 26,0 C 20,9 km/h (4 Bft) 100 %
25.08.2016 11:30 26,7 C 26,0 C 26,7 C 56 % 1017,6 hPa 0,0 l/m 1,6 km/h (1 Bft) SO 135 10 min 0,000 mm 724 W/m 17,2 C 26,7 C 17,7 km/h (3 Bft) 100 %
25.08.2016 11:40 27,2 C 26,7 C 27,2 C 55 % 1017,4 hPa 0,0 l/m 1,6 km/h (1 Bft) SO 135 10 min 0,000 mm 740 W/m 17,4 C 27,2 C 16,1 km/h (3 Bft) 100 %
25.08.2016 11:50 27,6 C 27,2 C 27,7 C 52 % 1017,4 hPa 0,0 l/m 4,8 km/h (1 Bft) SO 135 10 min 0,000 mm 756 W/m 16,8 C 27,6 C 17,7 km/h (3 Bft) 100 %
25.08.2016 12:00 27,4 C 27,4 C 27,6 C 49 % 1017,3 hPa 0,0 l/m 6,4 km/h (2 Bft) O-SO 112 10 min 0,483 mm 770 W/m 15,7 C 27,4 C 14,5 km/h (3 Bft) 100 %
25.08.2016 12:10 27,7 C 27,4 C 27,7 C 49 % 1017,1 hPa 0,0 l/m 4,8 km/h (1 Bft) SO 135 10 min 0,000 mm 779 W/m 16,0 C 27,7 C 16,1 km/h (3 Bft) 100 %
25.08.2016 12:20 27,9 C 27,7 C 27,9 C 51 % 1016,9 hPa 0,0 l/m 6,4 km/h (2 Bft) O-SO 112 10 min 0,000 mm 788 W/m 16,8 C 27,9 C 19,3 km/h (3 Bft) 100 %
25.08.2016 12:30 28,3 C 27,9 C 28,3 C 48 % 1016,8 hPa 0,0 l/m 3,2 km/h (1 Bft) SO 135 10 min 0,000 mm 795 W/m 16,2 C 28,3 C 14,5 km/h (3 Bft) 100 %
25.08.2016 12:40 28,6 C 28,3 C 28,6 C 45 % 1016,7 hPa 0,0 l/m 4,8 km/h (1 Bft) O-SO 112 10 min 0,000 mm 807 W/m 15,5 C 28,6 C 16,1 km/h (3 Bft) 100 %
25.08.2016 12:50 28,7 C 28,6 C 28,7 C 44 % 1016,6 hPa 0,0 l/m 6,4 km/h (2 Bft) O-SO 112 10 min 0,000 mm 810 W/m 15,2 C 28,7 C 22,5 km/h (4 Bft) 100 %
25.08.2016 13:00 28,9 C 28,7 C 28,9 C 42 % 1016,6 hPa 0,0 l/m 4,8 km/h (1 Bft) O-SO 112 10 min 0,559 mm 816 W/m 14,7 C 28,9 C 22,5 km/h (4 Bft) 100 %
25.08.2016 13:10 28,9 C 28,9 C 28,9 C 42 % 1016,6 hPa 0,0 l/m 9,7 km/h (2 Bft) O-SO 112 10 min 0,000 mm 817 W/m 14,7 C 28,5 C 19,3 km/h (3 Bft) 100 %
25.08.2016 13:20 29,3 C 28,9 C 29,3 C 40 % 1016,4 hPa 0,0 l/m 4,8 km/h (1 Bft) SO 135 10 min 0,000 mm 819 W/m 14,3 C 29,3 C 19,3 km/h (3 Bft) 100 %
25.08.2016 13:30 29,7 C 29,3 C 29,7 C 41 % 1016,4 hPa 0,0 l/m 6,4 km/h (2 Bft) SO 135 10 min 0,000 mm 817 W/m 15,0 C 29,7 C 19,3 km/h (3 Bft) 100 %
25.08.2016 13:40 29,9 C 29,7 C 29,9 C 43 % 1016,5 hPa 0,0 l/m 6,4 km/h (2 Bft) SO 135 10 min 0,000 mm 817 W/m 15,9 C 29,9 C 17,7 km/h (3 Bft) 100 %
25.08.2016 13:50 30,4 C 29,9 C 30,4 C 37 % 1016,3 hPa 0,0 l/m 1,6 km/h (1 Bft) O-SO 112 10 min 0,000 mm 816 W/m 14,0 C 30,4 C 11,3 km/h (2 Bft) 100 %
25.08.2016 14:00 30,6 C 30,4 C 30,6 C 40 % 1016,2 hPa 0,0 l/m 4,8 km/h (1 Bft) SO 135 10 min 0,610 mm 812 W/m 15,4 C 30,6 C 17,7 km/h (3 Bft) 100 %
25.08.2016 14:10 30,6 C 30,5 C 30,6 C 38 % 1016,2 hPa 0,0 l/m 8,0 km/h (2 Bft) O-SO 112 10 min 0,000 mm 805 W/m 14,6 C 30,5 C 22,5 km/h (4 Bft) 100 %
25.08.2016 14:20 30,7 C 30,6 C 30,7 C 35 % 1016,1 hPa 0,0 l/m 6,4 km/h (2 Bft) SO 135 10 min 0,000 mm 800 W/m 13,5 C 30,7 C 16,1 km/h (3 Bft) 100 %
25.08.2016 14:30 30,9 C 30,8 C 30,9 C 35 % 1016,1 hPa 0,0 l/m 6,4 km/h (2 Bft) O-SO 112 10 min 0,000 mm 793 W/m 13,6 C 30,9 C 19,3 km/h (3 Bft) 100 %
25.08.2016 14:40 30,8 C 30,8 C 30,9 C 35 % 1016,0 hPa 0,0 l/m 9,7 km/h (2 Bft) SO 135 10 min 0,000 mm 784 W/m 13,5 C 30,6 C 19,3 km/h (3 Bft) 100 %
25.08.2016 14:50 31,1 C 30,8 C 31,1 C 37 % 1015,9 hPa 0,0 l/m 4,8 km/h (1 Bft) SO 135 10 min 0,000 mm 772 W/m 14,7 C 31,1 C 16,1 km/h (3 Bft) 100 %
25.08.2016 15:00 31,3 C 31,1 C 31,3 C 34 % 1015,9 hPa 0,0 l/m 6,4 km/h (2 Bft) O-SO 112 10 min 0,610 mm 763 W/m 13,5 C 31,3 C 19,3 km/h (3 Bft) 100 %
25.08.2016 15:10 31,3 C 31,2 C 31,3 C 35 % 1015,7 hPa 0,0 l/m 6,4 km/h (2 Bft) O-SO 112 10 min 0,000 mm 522 W/m 14,0 C 31,3 C 17,7 km/h (3 Bft) 100 %
25.08.2016 15:20 31,7 C 31,3 C 31,7 C 32 % 1015,6 hPa 0,0 l/m 4,8 km/h (1 Bft) SO 135 10 min 0,000 mm 262 W/m 12,9 C 31,7 C 22,5 km/h (4 Bft) 100 %
25.08.2016 15:30 32,0 C 31,7 C 32,0 C 34 % 1015,6 hPa 0,0 l/m 3,2 km/h (1 Bft) SO 135 0 min 0,000 mm 84 W/m 14,1 C 32,0 C 16,1 km/h (3 Bft) 100 %
25.08.2016 15:40 32,0 C 32,0 C 32,1 C 33 % 1015,4 hPa 0,0 l/m 3,2 km/h (1 Bft) O-SO 112 0 min 0,000 mm 132 W/m 13,7 C 32,0 C 11,3 km/h (2 Bft) 100 %
25.08.2016 15:50 32,0 C 32,0 C 32,0 C 32 % 1015,4 hPa 0,0 l/m 1,6 km/h (1 Bft) O-SO 112 0 min 0,000 mm 49 W/m 13,2 C 32,0 C 8,0 km/h (2 Bft) 100 %
25.08.2016 16:00 31,9 C 31,8 C 32,0 C 32 % 1015,3 hPa 0,0 l/m 6,4 km/h (2 Bft) O-SO 112 0 min 0,127 mm 47 W/m 13,1 C 31,9 C 19,3 km/h (3 Bft) 100 %
25.08.2016 16:20 31,7 C 31,7 C 32,0 C 34 % 1015,3 hPa 0,0 l/m 1,8 km/h (1 Bft) SO 131 0 min 0,000 mm 46 W/m 13,9 C 31,7 C 14,5 km/h (3 Bft) 100 %
25.08.2016 16:30 31,8 C 31,7 C 31,8 C 33 % 1015,2 hPa 0,0 l/m 3,4 km/h (1 Bft) SO 137 0 min 0,000 mm 46 W/m 13,5 C 31,8 C 14,5 km/h (3 Bft) 100 %
25.08.2016 16:40 31,8 C 31,7 C 31,8 C 34 % 1015,2 hPa 0,0 l/m 1,9 km/h (1 Bft) O 91 0 min 0,000 mm 46 W/m 14,0 C 31,8 C 14,5 km/h (3 Bft) 99 %
25.08.2016 16:50 31,8 C 31,7 C 31,8 C 34 % 1015,1 hPa 0,0 l/m 2,8 km/h (1 Bft) S-SO 147 0 min 0,000 mm 44 W/m 14,0 C 31,8 C 16,1 km/h (3 Bft) 100 %
25.08.2016 17:00 31,7 C 31,7 C 31,8 C 34 % 1015,0 hPa 0,0 l/m 4,3 km/h (1 Bft) O 88 0 min 0,052 mm 44 W/m 13,9 C 31,7 C 20,9 km/h (4 Bft) 100 %
25.08.2016 17:10 31,7 C 31,7 C 31,7 C 34 % 1014,9 hPa 0,0 l/m 1,6 km/h (1 Bft) O 98 0 min 0,000 mm 42 W/m 13,9 C 31,7 C 11,3 km/h (2 Bft) 100 %
25.08.2016 17:20 31,7 C 31,7 C 31,7 C 36 % 1014,8 hPa 0,0 l/m 1,1 km/h (1 Bft) O-SO 104 0 min 0,000 mm 42 W/m 14,8 C 31,7 C 14,5 km/h (3 Bft) 100 %
25.08.2016 17:30 31,6 C 31,6 C 31,7 C 35 % 1014,6 hPa 0,0 l/m 2,5 km/h (1 Bft) S-SO 156 0 min 0,000 mm 40 W/m 14,2 C 31,6 C 16,1 km/h (3 Bft) 100 %
25.08.2016 17:40 31,6 C 31,6 C 31,6 C 35 % 1014,7 hPa 0,0 l/m 1,7 km/h (1 Bft) O-SO 110 0 min 0,000 mm 40 W/m 14,2 C 31,6 C 14,5 km/h (3 Bft) 99 %
25.08.2016 17:50 31,4 C 31,4 C 31,6 C 36 % 1014,4 hPa 0,0 l/m 1,6 km/h (1 Bft) O-SO 111 0 min 0,000 mm 39 W/m 14,5 C 31,4 C 16,1 km/h (3 Bft) 100 %
25.08.2016 18:00 31,2 C 31,2 C 31,4 C 37 % 1014,3 hPa 0,0 l/m 2,4 km/h (1 Bft) SO 126 0 min 0,000 mm 39 W/m 14,8 C 31,2 C 16,1 km/h (3 Bft) 100 %
25.08.2016 18:10 31,1 C 31,1 C 31,3 C 38 % 1014,2 hPa 0,0 l/m 2,1 km/h (1 Bft) O-SO 106 0 min 0,076 mm 37 W/m 15,1 C 31,1 C 12,9 km/h (3 Bft) 100 %
25.08.2016 18:20 30,8 C 30,8 C 31,1 C 38 % 1014,2 hPa 0,0 l/m 1,5 km/h (1 Bft) O 92 0 min 0,000 mm 35 W/m 14,8 C 30,8 C 11,3 km/h (2 Bft) 100 %
25.08.2016 18:30 30,6 C 30,6 C 30,8 C 39 % 1014,2 hPa 0,0 l/m 1,3 km/h (1 Bft) SO 138 0 min 0,000 mm 33 W/m 15,0 C 30,6 C 9,7 km/h (2 Bft) 100 %
25.08.2016 18:40 30,3 C 30,3 C 30,6 C 38 % 1014,2 hPa 0,0 l/m 2,1 km/h (1 Bft) SO 138 0 min 0,000 mm 33 W/m 14,4 C 30,3 C 14,5 km/h (3 Bft) 100 %
25.08.2016 18:50 30,1 C 30,1 C 30,3 C 38 % 1014,2 hPa 0,0 l/m 0,6 km/h (0 Bft) S-SO 155 0 min 0,000 mm 32 W/m 14,2 C 30,1 C 8,0 km/h (2 Bft) 100 %
25.08.2016 19:00 29,8 C 29,8 C 30,1 C 39 % 1014,2 hPa 0,0 l/m 0,7 km/h (0 Bft) SO 143 0 min 0,051 mm 28 W/m 14,3 C 29,8 C 9,7 km/h (2 Bft) 100 %
25.08.2016 19:10 29,4 C 29,4 C 29,8 C 40 % 1014,2 hPa 0,0 l/m 1,5 km/h (1 Bft) O-SO 117 0 min 0,000 mm 26 W/m 14,4 C 29,4 C 9,7 km/h (2 Bft) 100 %
25.08.2016 19:20 29,2 C 29,2 C 29,4 C 41 % 1014,2 hPa 0,0 l/m 0,3 km/h (0 Bft) S 179 0 min 0,000 mm 25 W/m 14,6 C 29,2 C 8,0 km/h (2 Bft) 100 %
25.08.2016 19:30 28,7 C 28,7 C 29,2 C 42 % 1014,2 hPa 0,0 l/m 0,0 km/h (0 Bft) O 90 0 min 0,000 mm 21 W/m 14,5 C 28,7 C 1,6 km/h (1 Bft) 100 %
25.08.2016 19:40 28,3 C 28,3 C 28,7 C 41 % 1014,2 hPa 0,0 l/m 0,7 km/h (0 Bft) O-SO 120 0 min 0,000 mm 19 W/m 13,8 C 28,3 C 8,0 km/h (2 Bft) 100 %
25.08.2016 19:50 27,8 C 27,8 C 28,3 C 42 % 1014,3 hPa 0,0 l/m 0,5 km/h (0 Bft) O 81 0 min 0,000 mm 16 W/m 13,7 C 27,8 C 8,0 km/h (2 Bft) 100 %
25.08.2016 20:00 27,4 C 27,4 C 27,8 C 42 % 1014,5 hPa 0,0 l/m 0,0 km/h (0 Bft) O 94 0 min 0,026 mm 12 W/m 13,3 C 27,4 C 1,6 km/h (1 Bft) 100 %
25.08.2016 20:10 27,1 C 27,1 C 27,4 C 44 % 1014,7 hPa 0,0 l/m 0,3 km/h (0 Bft) O 96 0 min 0,000 mm 7 W/m 13,8 C 27,1 C 6,4 km/h (2 Bft) 100 %
25.08.2016 20:20 26,6 C 26,6 C 27,1 C 46 % 1014,7 hPa 0,0 l/m 1,5 km/h (1 Bft) O-NO 71 0 min 0,000 mm 0 W/m 14,0 C 26,6 C 8,0 km/h (2 Bft) 100 %
25.08.2016 20:30 26,3 C 26,3 C 26,6 C 46 % 1014,8 hPa 0,0 l/m 1,9 km/h (1 Bft) O-SO 107 0 min 0,000 mm 0 W/m 13,7 C 26,3 C 9,7 km/h (2 Bft) 100 %
25.08.2016 20:40 26,0 C 26,0 C 26,3 C 46 % 1014,9 hPa 0,0 l/m 2,2 km/h (1 Bft) O-SO 102 0 min 0,000 mm 0 W/m 13,5 C 26,0 C 12,9 km/h (3 Bft) 100 %
25.08.2016 20:50 25,7 C 25,7 C 26,0 C 46 % 1014,8 hPa 0,0 l/m 3,1 km/h (1 Bft) O 99 0 min 0,000 mm 0 W/m 13,2 C 25,7 C 16,1 km/h (3 Bft) 100 %
25.08.2016 21:00 25,6 C 25,6 C 25,7 C 46 % 1014,9 hPa 0,0 l/m 2,5 km/h (1 Bft) O 97 0 min 0,025 mm 0 W/m 13,1 C 25,6 C 11,3 km/h (2 Bft) 100 %
25.08.2016 21:10 25,4 C 25,4 C 25,6 C 48 % 1015,0 hPa 0,0 l/m 1,6 km/h (1 Bft) O 90 0 min 0,000 mm 0 W/m 13,6 C 25,4 C 11,3 km/h (2 Bft) 100 %
25.08.2016 21:20 25,2 C 25,2 C 25,4 C 47 % 1015,1 hPa 0,0 l/m 1,6 km/h (1 Bft) O 90 0 min 0,000 mm 0 W/m 13,1 C 25,2 C 11,3 km/h (2 Bft) 99 %
25.08.2016 21:30 25,1 C 25,1 C 25,2 C 47 % 1015,1 hPa 0,0 l/m 1,6 km/h (1 Bft) O 90 0 min 0,000 mm 0 W/m 13,0 C 25,1 C 11,3 km/h (2 Bft) 100 %
25.08.2016 21:40 24,9 C 24,9 C 25,1 C 49 % 1015,1 hPa 0,0 l/m 1,6 km/h (1 Bft) O-SO 112 0 min 0,000 mm 0 W/m 13,4 C 24,9 C 14,5 km/h (3 Bft) 100 %
25.08.2016 21:50 24,8 C 24,8 C 24,9 C 50 % 1015,0 hPa 0,0 l/m 1,6 km/h (1 Bft) O-SO 112 0 min 0,000 mm 0 W/m 13,7 C 24,8 C 9,7 km/h (2 Bft) 100 %
25.08.2016 22:00 24,4 C 24,4 C 24,8 C 51 % 1014,9 hPa 0,0 l/m 1,6 km/h (1 Bft) O-SO 112 0 min 0,051 mm 0 W/m 13,6 C 24,4 C 6,4 km/h (2 Bft) 100 %
25.08.2016 22:10 24,2 C 24,2 C 24,4 C 51 % 1014,9 hPa 0,0 l/m 0,0 km/h (0 Bft) O 90 0 min 0,000 mm 0 W/m 13,4 C 24,2 C 8,0 km/h (2 Bft) 100 %
25.08.2016 22:20 24,0 C 23,9 C 24,2 C 52 % 1015,0 hPa 0,0 l/m 1,6 km/h (1 Bft) O-SO 112 0 min 0,000 mm 0 W/m 13,5 C 24,0 C 9,7 km/h (2 Bft) 100 %
25.08.2016 22:30 23,8 C 23,8 C 23,9 C 52 % 1015,0 hPa 0,0 l/m 1,6 km/h (1 Bft) O 90 0 min 0,000 mm 0 W/m 13,3 C 23,8 C 9,7 km/h (2 Bft) 99 %
25.08.2016 22:40 23,7 C 23,7 C 23,8 C 53 % 1014,9 hPa 0,0 l/m 0,0 km/h (0 Bft) SO 135 0 min 0,000 mm 0 W/m 13,5 C 23,7 C 8,0 km/h (2 Bft) 99 %
25.08.2016 22:50 23,6 C 23,6 C 23,7 C 54 % 1015,0 hPa 0,0 l/m 0,0 km/h (0 Bft) O-SO 112 0 min 0,000 mm 0 W/m 13,7 C 23,6 C 11,3 km/h (2 Bft) 99 %
25.08.2016 23:00 23,4 C 23,4 C 23,6 C 54 % 1015,0 hPa 0,0 l/m 0,0 km/h (0 Bft) O-SO 112 0 min 0,051 mm 0 W/m 13,6 C 23,4 C 3,2 km/h (1 Bft) 98 %
25.08.2016 23:10 23,2 C 23,2 C 23,4 C 55 % 1014,9 hPa 0,0 l/m 1,6 km/h (1 Bft) SO 135 0 min 0,000 mm 0 W/m 13,6 C 23,2 C 11,3 km/h (2 Bft) 98 %
25.08.2016 23:20 23,0 C 23,0 C 23,1 C 56 % 1014,9 hPa 0,0 l/m 1,6 km/h (1 Bft) O-SO 112 0 min 0,000 mm 0 W/m 13,7 C 23,0 C 11,3 km/h (2 Bft) 98 %
25.08.2016 23:30 22,9 C 22,9 C 23,0 C 54 % 1015,0 hPa 0,0 l/m 1,6 km/h (1 Bft) O-SO 112 0 min 0,000 mm 0 W/m 13,1 C 22,9 C 11,3 km/h (2 Bft) 97 %
25.08.2016 23:40 22,7 C 22,7 C 22,9 C 57 % 1015,0 hPa 0,0 l/m 0,0 km/h (0 Bft) O-NO 67 0 min 0,000 mm 0 W/m 13,7 C 22,7 C 3,2 km/h (1 Bft) 98 %
25.08.2016 23:50 21,9 C 21,9 C 22,6 C 59 % 1015,1 hPa 0,0 l/m 0,0 km/h (0 Bft) S-SO 157 0 min 0,000 mm 0 W/m 13,5 C 21,9 C 1,6 km/h (1 Bft) 98 %
_ Min-Zeit 06:20 06:20 06:20 15:20 18:10 - 00:00 - - - - - 15:20 06:10 03:00 00:10
Minimum _ 15,8 C 15,8 C 15,9 C 32 % 1014,2 hPa - 0,0 km/h (0 Bft) - - - - - 12,9 C 15,9 C 0,0 km/h (0 Bft) 80 %
_ Max-Zeit 15:40 15:40 15:40 06:30 00:00 00:00 13:10 - - 08:40 14:00 13:20 11:40 15:30 12:50 00:00
Maximum _ 32,1 C 32,0 C 32,1 C 87 % 1019,4 hPa 0,0 l/m 9,7 km/h
O-SO (2 Bft)
- - 10 min 0,610 mm 819 W/m 17,4 C 32,0 C 22,5 km/h
SO (4 Bft)
100 %
Durchschnitt _ 23,9 C 23,8 C 24,0 C 59 % 1016,8 hPa #0,0 l/m 1,8 km/h (1 Bft) O-SO - #6:50 h #3,658 mm 353 W/m 14,4 C 23,9 C 9,7 km/h (2 Bft) 100 %
PRIVATE WETTERSTATION BILLIGHEIM-ALLFELD - www.neckar-odenwald-wetter.de - Holger Sonntag